Scappoose, Oregon
Current Conditions -  °F | °C
As of 4:02 PM on Friday 21 Nov 2014 (Local Time) from KSPB Reporting Station
Light Rain Light Rain  
Wind Chill: 45°   Ceiling: 300
Heat Index: 47°   Visibility: 3mi
Dew Point: 46°   Wind: 5mph
Humidity: 97%   Direction: NA
Pressure: 29.46"   Gusts: NA
Location:  45.75°N, 122.88°W
Report Text: KSPB 220002Z AUTO VRB04KT 3SM -RA BR OVC003 08/08 A2946 RMK AO2 P0000 T00830078
Loading
Personal Weather Stations






























Interactive Weather Map New forecast layout! Learn more

10-Day Weather Forecast

Advertisements
Track Severe Weather on mobile